createdAt,value
2022-08-03T00:01:50.746Z,43.15
2022-08-03T00:04:21.302Z,43.25
2022-08-03T00:07:04.309Z,43.20
2022-08-03T00:09:35.472Z,43.29
2022-08-03T00:12:07.153Z,43.24
2022-08-03T00:14:37.724Z,43.14
2022-08-03T00:17:08.108Z,43.09
2022-08-03T00:19:38.471Z,43.36
2022-08-03T00:22:08.935Z,43.24
2022-08-03T00:24:39.309Z,43.05
2022-08-03T00:27:09.683Z,43.02
2022-08-03T00:29:59.622Z,43.17
2022-08-03T00:32:30.451Z,43.25
2022-08-03T00:35:09.243Z,43.15
2022-08-03T00:37:41.999Z,43.50
2022-08-03T00:40:14.915Z,43.74
2022-08-03T00:42:53.741Z,43.82
2022-08-03T00:45:27.235Z,43.94
2022-08-03T00:47:58.194Z,44.31
2022-08-03T00:50:30.775Z,44.27
2022-08-03T00:53:00.340Z,44.29
2022-08-03T00:55:30.701Z,44.34
2022-08-03T00:58:01.477Z,44.75
2022-08-03T01:00:31.817Z,44.97
2022-08-03T01:03:02.183Z,45.32
2022-08-03T01:05:33.915Z,45.35
2022-08-03T01:08:07.244Z,45.48
2022-08-03T01:10:42.984Z,45.52
2022-08-03T01:14:04.309Z,45.57
2022-08-03T01:16:36.956Z,45.56
2022-08-03T01:19:18.411Z,45.92
2022-08-03T01:21:59.144Z,46.01
2022-08-03T01:24:40.919Z,46.08
2022-08-03T01:27:12.658Z,46.21
2022-08-03T01:30:09.402Z,46.24
2022-08-03T01:32:53.427Z,46.25
2022-08-03T01:35:38.745Z,46.33
2022-08-03T01:38:14.868Z,46.44
2022-08-03T01:40:46.965Z,46.48
2022-08-03T01:44:27.653Z,46.59
2022-08-03T01:46:10.155Z,46.63
2022-08-03T01:48:42.595Z,46.85
2022-08-03T01:51:13.224Z,46.69
2022-08-03T01:53:43.846Z,46.63
2022-08-03T01:56:14.934Z,46.48
2022-08-03T01:58:46.916Z,46.40
2022-08-03T02:01:18.847Z,46.40
2022-08-03T02:03:59.544Z,46.35
2022-08-03T02:07:02.230Z,46.21
2022-08-03T02:09:23.842Z,46.17
2022-08-03T02:11:55.618Z,46.12
2022-08-03T02:14:26.269Z,46.24
2022-08-03T02:16:57.207Z,46.05
2022-08-03T02:19:33.769Z,46.25
2022-08-03T02:22:08.466Z,46.36
2022-08-03T02:24:38.960Z,46.41
2022-08-03T02:27:14.333Z,46.30
2022-08-03T02:29:45.568Z,46.37
2022-08-03T02:32:21.342Z,46.39
2022-08-03T02:34:54.235Z,46.58
2022-08-03T02:37:28.762Z,46.56
2022-08-03T02:40:02.372Z,46.42
2022-08-03T02:42:34.642Z,46.59
2022-08-03T02:45:09.062Z,46.56
2022-08-03T02:47:53.470Z,46.71
2022-08-03T02:50:26.272Z,46.86
2022-08-03T02:52:57.624Z,46.74
2022-08-03T02:55:28.893Z,46.78
2022-08-03T02:58:01.392Z,46.88
2022-08-03T03:00:33.165Z,47.00
2022-08-03T03:03:04.455Z,46.85
2022-08-03T03:05:52.043Z,46.83
2022-08-03T03:08:28.282Z,47.16
2022-08-03T03:11:01.139Z,47.08
2022-08-03T03:13:32.747Z,47.16
2022-08-03T03:16:05.717Z,47.39
2022-08-03T03:18:36.629Z,47.58
2022-08-03T03:21:08.888Z,47.69
2022-08-03T03:23:40.434Z,47.71
2022-08-03T03:26:11.212Z,47.71
2022-08-03T03:28:41.812Z,47.68
2022-08-03T03:31:12.271Z,47.80
2022-08-03T03:33:42.868Z,47.73
2022-08-03T03:36:13.204Z,47.84
2022-08-03T03:38:43.603Z,47.87
2022-08-03T03:41:14.113Z,47.69
2022-08-03T03:43:44.740Z,47.67
2022-08-03T03:46:16.428Z,47.60
2022-08-03T03:48:46.926Z,47.39
2022-08-03T03:51:17.686Z,47.55
2022-08-03T03:53:59.109Z,47.49
2022-08-03T03:56:30.093Z,47.28
2022-08-03T03:59:00.533Z,47.34
2022-08-03T04:01:31.050Z,47.27
2022-08-03T04:04:22.036Z,47.31
2022-08-03T04:07:10.003Z,47.22
2022-08-03T04:09:59.310Z,47.35
2022-08-03T04:12:40.147Z,47.67
2022-08-03T04:15:23.660Z,47.81
2022-08-03T04:17:55.990Z,47.79
2022-08-03T04:20:27.323Z,47.88
2022-08-03T04:23:00.030Z,47.99
2022-08-03T04:25:29.581Z,47.93
2022-08-03T04:28:20.920Z,47.77
2022-08-03T04:30:53.425Z,48.01
2022-08-03T04:33:25.016Z,47.96
2022-08-03T04:36:03.598Z,47.75
2022-08-03T04:38:37.248Z,47.81
2022-08-03T04:41:08.180Z,47.80
2022-08-03T04:43:40.883Z,47.74
2022-08-03T04:46:10.005Z,47.51
2022-08-03T04:48:44.383Z,47.40
2022-08-03T04:51:16.691Z,47.11
2022-08-03T04:53:47.141Z,46.70
2022-08-03T04:56:17.511Z,45.90
2022-08-03T04:58:48.030Z,45.13
2022-08-03T05:01:20.395Z,44.29
2022-08-03T05:03:51.550Z,43.09
2022-08-03T05:06:21.942Z,41.66
2022-08-03T05:08:55.871Z,40.71
2022-08-03T05:11:26.779Z,40.00
2022-08-03T05:13:57.148Z,39.24
2022-08-03T05:16:27.506Z,38.00
2022-08-03T05:18:57.846Z,36.89
2022-08-03T05:21:52.596Z,36.31
2022-08-03T05:24:18.836Z,35.74
2022-08-03T05:26:49.225Z,35.03
2022-08-03T05:29:19.667Z,34.25
2022-08-03T05:31:49.991Z,33.77
2022-08-03T05:34:20.374Z,33.08
2022-08-03T05:36:50.742Z,32.91
2022-08-03T05:39:21.071Z,32.39
2022-08-03T05:41:51.395Z,32.03
2022-08-03T05:44:22.090Z,32.39
2022-08-03T05:46:52.495Z,32.65
2022-08-03T05:49:23.450Z,32.43
2022-08-03T05:51:59.965Z,32.51
2022-08-03T05:54:55.590Z,32.66
2022-08-03T05:57:28.177Z,32.35
2022-08-03T05:59:58.991Z,32.11
2022-08-03T06:02:29.610Z,31.63
2022-08-03T06:05:00.013Z,31.49
2022-08-03T06:07:30.840Z,31.35
2022-08-03T06:10:37.286Z,31.65
2022-08-03T06:12:52.594Z,30.81
2022-08-03T06:15:24.066Z,30.44
2022-08-03T06:18:00.086Z,30.72
2022-08-03T06:20:32.855Z,30.39
2022-08-03T06:23:03.199Z,30.79
2022-08-03T06:25:33.664Z,30.93
2022-08-03T06:28:05.164Z,30.89
2022-08-03T06:30:36.129Z,30.87
2022-08-03T06:33:08.263Z,30.71
2022-08-03T06:35:38.771Z,30.38
2022-08-03T06:38:12.966Z,30.70
2022-08-03T06:40:43.408Z,30.56
2022-08-03T06:43:15.467Z,30.26
2022-08-03T06:45:47.616Z,29.90
2022-08-03T06:48:18.462Z,30.14
2022-08-03T06:50:48.971Z,29.56
2022-08-03T06:53:19.961Z,28.98
2022-08-03T06:55:54.647Z,29.06
2022-08-03T06:58:25.729Z,28.99
2022-08-03T07:00:56.129Z,28.59
2022-08-03T07:03:28.729Z,28.94
2022-08-03T07:05:59.203Z,28.56
2022-08-03T07:08:34.241Z,28.42
2022-08-03T07:11:08.405Z,28.06
2022-08-03T07:13:42.203Z,27.60
2022-08-03T07:16:18.995Z,27.14
2022-08-03T07:18:57.988Z,26.81
2022-08-03T07:21:29.568Z,26.78
2022-08-03T07:24:01.374Z,26.46
2022-08-03T07:26:30.333Z,26.20
2022-08-03T07:29:01.513Z,25.83
2022-08-03T07:31:34.428Z,25.45
2022-08-03T07:34:05.102Z,25.19
2022-08-03T07:36:35.435Z,24.88
2022-08-03T07:39:16.611Z,24.62
2022-08-03T07:41:51.376Z,24.94
2022-08-03T07:44:21.981Z,25.01
2022-08-03T07:46:52.375Z,24.89
2022-08-03T07:49:23.291Z,24.69
2022-08-03T07:52:07.849Z,24.66
2022-08-03T08:00:28.146Z,24.92
2022-08-03T08:03:07.445Z,25.10
2022-08-03T08:05:40.141Z,25.06
2022-08-03T08:08:15.380Z,25.22
2022-08-03T08:10:57.779Z,25.29
2022-08-03T08:13:36.387Z,25.71
2022-08-03T08:16:08.430Z,25.40
2022-08-03T08:18:39.532Z,25.60
2022-08-03T08:21:10.876Z,25.67
2022-08-03T08:23:46.221Z,25.17
2022-08-03T08:26:27.437Z,25.25
2022-08-03T08:28:57.768Z,24.73
2022-08-03T08:31:28.200Z,24.35
2022-08-03T08:34:07.542Z,24.07
2022-08-03T08:36:38.488Z,23.74
2022-08-03T08:39:11.346Z,24.04
2022-08-03T08:41:46.089Z,24.35
2022-08-03T08:44:17.728Z,24.06
2022-08-03T08:46:48.160Z,24.08
2022-08-03T08:49:21.113Z,23.55
2022-08-03T08:52:00.647Z,22.89
2022-08-03T08:54:37.256Z,22.42
2022-08-03T08:57:33.032Z,21.82
2022-08-03T09:00:06.851Z,22.01
2022-08-03T09:02:37.813Z,21.79
2022-08-03T09:05:10.605Z,21.99
2022-08-03T09:07:41.772Z,22.15
2022-08-03T09:10:14.010Z,22.38
2022-08-03T09:12:47.173Z,22.62
2022-08-03T09:15:31.908Z,22.38
2022-08-03T09:18:04.338Z,22.08
2022-08-03T09:20:36.744Z,21.97
2022-08-03T09:23:44.652Z,21.85
2022-08-03T09:26:01.690Z,22.17
2022-08-03T09:29:00.868Z,21.81
2022-08-03T09:31:38.775Z,21.80
2022-08-03T09:34:10.661Z,21.64
2022-08-03T09:36:43.789Z,21.56
2022-08-03T09:39:16.011Z,21.22
2022-08-03T09:41:52.017Z,20.97
2022-08-03T09:44:36.911Z,20.58
2022-08-03T09:47:07.997Z,20.74
2022-08-03T09:49:42.406Z,21.10
2022-08-03T09:52:37.731Z,21.39
2022-08-03T09:56:30.812Z,21.16
2022-08-03T09:58:09.515Z,21.02
2022-08-03T10:00:55.994Z,21.12
2022-08-03T10:03:28.235Z,20.81
2022-08-03T10:06:00.122Z,20.91
2022-08-03T10:08:32.398Z,20.68
2022-08-03T10:11:03.071Z,20.68
2022-08-03T10:13:33.815Z,20.33
2022-08-03T10:16:21.817Z,20.51
2022-08-03T10:18:57.636Z,20.59
2022-08-03T10:21:29.530Z,20.11
2022-08-03T10:24:00.127Z,20.26
2022-08-03T10:26:34.593Z,20.77
2022-08-03T10:29:12.889Z,20.92
2022-08-03T10:31:55.926Z,21.18
2022-08-03T10:34:30.404Z,20.88
2022-08-03T10:37:01.986Z,20.82
2022-08-03T10:39:33.129Z,20.72
2022-08-03T10:42:04.465Z,20.88
2022-08-03T10:44:41.782Z,20.84
2022-08-03T10:47:13.023Z,20.70
2022-08-03T10:49:44.112Z,20.44
2022-08-03T10:52:31.802Z,20.17
2022-08-03T10:55:21.862Z,20.30
2022-08-03T10:57:58.521Z,20.01
2022-08-03T11:00:30.758Z,19.90
2022-08-03T11:03:09.600Z,19.76
2022-08-03T11:05:42.320Z,19.57
2022-08-03T11:08:27.873Z,19.47
2022-08-03T11:11:00.379Z,19.26
2022-08-03T11:13:33.727Z,19.30
2022-08-03T11:16:21.926Z,18.85
2022-08-03T11:19:00.415Z,18.35
2022-08-03T11:21:57.858Z,18.22
2022-08-03T11:25:03.197Z,17.93
2022-08-03T11:27:39.989Z,17.65
2022-08-03T11:30:13.861Z,17.28
2022-08-03T11:32:59.706Z,17.08
2022-08-03T11:35:31.376Z,16.73
2022-08-03T11:38:13.083Z,16.80
2022-08-03T11:40:45.711Z,16.68
2022-08-03T11:43:46.248Z,16.63
2022-08-03T11:46:28.769Z,16.26
2022-08-03T11:49:10.554Z,16.05
2022-08-03T11:51:40.317Z,15.87
2022-08-03T11:54:11.461Z,15.67
2022-08-03T11:56:49.581Z,15.72
2022-08-03T11:59:22.284Z,15.61
2022-08-03T12:01:53.158Z,15.10
2022-08-03T12:04:23.666Z,15.03
2022-08-03T12:07:04.779Z,14.88
2022-08-03T12:09:36.207Z,15.11
2022-08-03T12:12:07.432Z,15.09
2022-08-03T12:14:49.818Z,15.32
2022-08-03T12:17:23.065Z,15.06
2022-08-03T12:19:54.187Z,14.92
2022-08-03T12:22:35.269Z,15.00
2022-08-03T12:25:06.201Z,14.87
2022-08-03T12:27:36.840Z,14.54
2022-08-03T12:30:08.697Z,14.80
2022-08-03T12:32:39.262Z,14.66
2022-08-03T12:35:10.979Z,14.62
2022-08-03T12:37:41.622Z,14.30
2022-08-03T12:40:20.549Z,13.96
2022-08-03T12:42:53.417Z,13.83
2022-08-03T12:45:26.486Z,13.54
2022-08-03T12:47:58.522Z,13.62
2022-08-03T12:50:32.959Z,13.53
2022-08-03T12:53:05.297Z,13.35
2022-08-03T12:55:57.651Z,13.40
2022-08-03T12:58:35.372Z,13.05
2022-08-03T13:01:09.258Z,12.56
2022-08-03T13:03:45.679Z,12.75
2022-08-03T13:06:22.596Z,13.02
2022-08-03T13:09:04.368Z,12.87
2022-08-03T13:11:57.995Z,12.52
2022-08-03T13:14:25.406Z,12.46
2022-08-03T13:16:55.887Z,12.38
2022-08-03T13:19:26.853Z,12.42
2022-08-03T13:22:04.438Z,12.31
2022-08-03T13:24:35.842Z,12.17
2022-08-03T13:28:11.027Z,11.90
2022-08-03T13:29:58.450Z,11.86
2022-08-03T13:32:28.919Z,11.99
2022-08-03T13:34:59.274Z,12.04
2022-08-03T13:37:29.761Z,11.50
2022-08-03T13:40:02.530Z,11.16
2022-08-03T13:42:35.712Z,11.43
2022-08-03T13:45:08.900Z,11.12
2022-08-03T13:47:39.274Z,11.13
2022-08-03T13:50:08.752Z,10.93
2022-08-03T13:52:39.216Z,10.63
2022-08-03T13:55:10.917Z,10.55
2022-08-03T13:58:04.732Z,10.51
2022-08-03T14:00:32.366Z,10.96
2022-08-03T14:03:12.844Z,11.09
2022-08-03T14:05:44.678Z,10.82
2022-08-03T14:08:15.437Z,10.44
2022-08-03T14:10:46.733Z,10.34
2022-08-03T14:13:17.933Z,10.07
2022-08-03T14:15:50.029Z,9.75
2022-08-03T14:18:29.345Z,9.99
2022-08-03T14:21:06.427Z,9.94
2022-08-03T14:23:38.560Z,10.16
2022-08-03T14:26:09.920Z,9.89
2022-08-03T14:28:40.266Z,9.50
2022-08-03T14:32:09.093Z,9.62
2022-08-03T14:34:01.249Z,9.83
2022-08-03T14:36:31.577Z,10.02
2022-08-03T14:39:02.094Z,10.06
2022-08-03T14:41:32.441Z,9.63
2022-08-03T14:44:02.822Z,9.42
2022-08-03T14:46:33.469Z,9.62
2022-08-03T14:50:36.976Z,9.55
2022-08-03T14:51:56.577Z,9.51
2022-08-03T14:54:31.574Z,9.36
2022-08-03T14:57:05.468Z,9.31
2022-08-03T14:59:55.809Z,9.07
2022-08-03T15:02:30.690Z,9.00
2022-08-03T15:05:04.735Z,9.09
2022-08-03T15:07:38.281Z,9.00
2022-08-03T15:10:12.648Z,9.09
2022-08-03T15:12:45.706Z,9.27
2022-08-03T15:15:18.716Z,9.36
2022-08-03T15:18:00.485Z,9.50
2022-08-03T15:20:50.403Z,9.43
2022-08-03T15:23:23.744Z,9.56
2022-08-03T15:26:30.239Z,9.82
2022-08-03T15:28:50.893Z,10.23
2022-08-03T15:31:27.835Z,10.93
2022-08-03T15:34:01.808Z,11.88
2022-08-03T15:36:36.115Z,13.05
2022-08-03T15:39:11.004Z,14.32
2022-08-03T15:41:45.690Z,15.25
2022-08-03T15:49:03.097Z,17.41
2022-08-03T15:51:39.056Z,17.46
2022-08-03T16:00:44.352Z,18.24
2022-08-03T16:03:16.298Z,18.71
2022-08-03T16:05:47.117Z,18.98
2022-08-03T16:08:17.802Z,18.85
2022-08-03T16:10:49.517Z,18.59
2022-08-03T16:13:21.458Z,18.19
2022-08-03T16:16:12.655Z,18.11
2022-08-03T16:18:43.961Z,17.80
2022-08-03T16:21:19.437Z,18.03
2022-08-03T16:23:51.198Z,17.86
2022-08-03T16:26:23.236Z,17.82
2022-08-03T16:28:59.203Z,17.90
2022-08-03T16:31:31.513Z,18.08
2022-08-03T16:34:02.578Z,18.21
2022-08-03T16:36:34.961Z,18.21
2022-08-03T16:39:06.409Z,18.42
2022-08-03T16:41:54.526Z,18.80
2022-08-03T16:44:32.018Z,18.41
2022-08-03T16:47:06.323Z,18.57
2022-08-03T16:49:55.125Z,18.85
2022-08-03T16:52:27.400Z,18.79
2022-08-03T16:54:58.922Z,19.14
2022-08-03T16:57:59.523Z,19.81
2022-08-03T17:00:34.073Z,20.25
2022-08-03T17:03:20.798Z,20.52
2022-08-03T17:05:59.584Z,20.49
2022-08-03T17:08:32.610Z,20.44
2022-08-03T17:11:03.368Z,21.28
2022-08-03T17:13:39.469Z,21.91
2022-08-03T17:16:15.310Z,22.35
2022-08-03T17:18:54.412Z,22.65
2022-08-03T17:21:29.454Z,22.90
2022-08-03T17:24:12.453Z,22.88
2022-08-03T17:26:44.958Z,23.75
2022-08-03T17:29:18.129Z,24.02
2022-08-03T17:31:49.881Z,24.26
2022-08-03T17:34:26.329Z,24.36
2022-08-03T17:37:06.070Z,25.01
2022-08-03T17:42:32.959Z,25.37
2022-08-03T17:45:06.620Z,25.94
2022-08-03T17:47:42.151Z,26.03
2022-08-03T17:50:24.086Z,26.07
2022-08-03T17:53:07.154Z,26.32
2022-08-03T17:55:55.779Z,26.43
2022-08-03T17:58:41.223Z,26.90
2022-08-03T18:02:02.719Z,27.00
2022-08-03T18:07:25.015Z,27.65
2022-08-03T18:10:15.189Z,27.88
2022-08-03T18:12:52.715Z,28.17
2022-08-03T18:15:31.981Z,28.44
2022-08-03T18:18:10.481Z,28.51
2022-08-03T18:20:42.653Z,28.80
2022-08-03T18:23:25.009Z,28.79
2022-08-03T18:26:11.878Z,28.93
2022-08-03T18:28:58.698Z,29.11
2022-08-03T18:31:59.667Z,29.23
2022-08-03T18:34:33.003Z,29.38
2022-08-03T18:37:07.832Z,29.49
2022-08-03T18:42:32.247Z,29.67
2022-08-03T18:45:54.987Z,29.85
2022-08-03T18:48:02.366Z,29.96
2022-08-03T18:50:37.381Z,30.16
2022-08-03T18:53:19.568Z,30.30
2022-08-03T18:56:02.146Z,30.39
2022-08-03T18:58:53.065Z,30.43
2022-08-03T19:01:59.087Z,30.50
2022-08-03T19:04:34.589Z,30.64
2022-08-03T19:07:08.102Z,30.80
2022-08-03T19:09:49.437Z,30.85
2022-08-03T19:12:28.062Z,31.00
2022-08-03T19:15:10.529Z,31.06
2022-08-03T19:17:50.313Z,31.18
2022-08-03T19:20:26.883Z,31.23
2022-08-03T19:23:00.967Z,31.42
2022-08-03T19:30:26.139Z,31.65
2022-08-03T19:32:58.044Z,31.82
2022-08-03T19:35:51.399Z,32.00
2022-08-03T19:38:27.397Z,32.11
2022-08-03T19:41:02.552Z,32.13
2022-08-03T19:43:52.829Z,32.21
2022-08-03T19:46:31.146Z,32.26
2022-08-03T19:49:04.714Z,32.24
2022-08-03T19:51:56.687Z,32.28
2022-08-03T19:54:36.740Z,32.35
2022-08-03T19:57:19.031Z,32.42
2022-08-03T19:59:50.720Z,32.51
2022-08-03T20:02:25.781Z,32.68
2022-08-03T20:05:00.021Z,32.73
2022-08-03T20:07:32.975Z,32.64
2022-08-03T20:10:05.999Z,32.78
2022-08-03T20:12:39.390Z,32.93
2022-08-03T20:15:09.159Z,32.99
2022-08-03T20:17:57.068Z,33.18
2022-08-03T20:20:32.654Z,33.30
2022-08-03T20:23:07.144Z,33.18
2022-08-03T20:25:48.726Z,33.33
2022-08-03T20:28:27.430Z,33.48
2022-08-03T20:30:58.469Z,33.34
2022-08-03T20:33:46.686Z,33.20
2022-08-03T20:36:19.912Z,33.22
2022-08-03T20:38:51.970Z,33.30
2022-08-03T20:41:21.156Z,33.30
2022-08-03T20:43:52.041Z,33.58
2022-08-03T20:46:31.719Z,33.50
2022-08-03T20:49:09.192Z,33.56
2022-08-03T20:51:49.566Z,33.62
2022-08-03T20:54:33.873Z,33.54
2022-08-03T20:59:57.227Z,33.81
2022-08-03T21:02:29.603Z,33.95
2022-08-03T21:05:08.479Z,33.83
2022-08-03T21:08:04.096Z,33.90
2022-08-03T21:10:37.981Z,33.98
2022-08-03T21:12:56.492Z,27.42
2022-08-03T21:12:58.867Z,29.60
2022-08-03T21:13:13.491Z,33.77
2022-08-03T21:13:17.487Z,33.92
2022-08-03T21:16:06.065Z,33.83
2022-08-03T21:18:46.696Z,33.68
2022-08-03T21:21:19.053Z,33.52
2022-08-03T21:23:53.727Z,33.46
2022-08-03T21:26:26.239Z,33.54
2022-08-03T21:28:57.992Z,33.69
2022-08-03T21:31:28.436Z,33.59
2022-08-03T21:34:01.991Z,33.50
2022-08-03T21:36:34.485Z,33.67
2022-08-03T21:39:07.698Z,33.65
2022-08-03T21:41:39.912Z,33.70
2022-08-03T21:44:10.632Z,33.57
2022-08-03T21:46:42.264Z,33.68
2022-08-03T21:50:07.377Z,33.73
2022-08-03T21:52:07.140Z,33.71
2022-08-03T21:54:39.351Z,33.74
2022-08-03T21:57:19.259Z,33.52
2022-08-03T21:59:55.603Z,33.68
2022-08-03T22:02:32.177Z,33.66
2022-08-03T22:05:05.294Z,33.76
2022-08-03T22:07:39.017Z,33.81
2022-08-03T22:10:13.278Z,33.92
2022-08-03T22:13:00.209Z,33.83
2022-08-03T22:15:33.405Z,33.89
2022-08-03T22:18:10.373Z,33.92
2022-08-03T22:20:42.881Z,34.21
2022-08-03T22:23:13.474Z,34.02
2022-08-03T22:25:45.471Z,34.08
2022-08-03T22:28:18.191Z,33.94
2022-08-03T22:30:52.473Z,34.02
2022-08-03T22:33:25.214Z,34.16
2022-08-03T22:36:02.156Z,34.26
2022-08-03T22:38:36.411Z,34.26
2022-08-03T22:41:08.482Z,34.34
2022-08-03T22:43:41.158Z,34.19
2022-08-03T22:46:18.282Z,34.32
2022-08-03T22:48:50.345Z,34.46
2022-08-03T22:51:20.434Z,34.53
2022-08-03T22:53:53.428Z,34.86
2022-08-03T22:56:29.321Z,34.83
2022-08-03T22:59:02.688Z,35.01
2022-08-03T23:02:20.200Z,35.31
2022-08-03T23:04:58.524Z,35.27
2022-08-03T23:07:36.825Z,35.41
2022-08-03T23:10:12.304Z,35.42
2022-08-03T23:12:49.572Z,35.45
2022-08-03T23:15:23.221Z,35.65
2022-08-03T23:17:59.349Z,35.63
2022-08-03T23:20:34.371Z,35.73
2022-08-03T23:23:07.301Z,35.81
2022-08-03T23:25:43.570Z,35.72
2022-08-03T23:28:20.746Z,35.88
2022-08-03T23:30:55.298Z,35.77
2022-08-03T23:33:31.861Z,35.87
2022-08-03T23:40:37.323Z,35.78
2022-08-03T23:43:15.509Z,35.81
2022-08-03T23:46:08.965Z,36.00
2022-08-03T23:48:42.412Z,36.02
2022-08-03T23:51:20.322Z,36.00
